sensor_id;sensor_type;location;lat;lon;timestamp;P1;durP1;ratioP1;P2;durP2;ratioP2
55009;SDS011;40903;51.638;7.528;2024-01-15T00:02:04;31.03;;;14.03;;
55009;SDS011;40903;51.638;7.528;2024-01-15T00:04:30;28.13;;;14.47;;
55009;SDS011;40903;51.638;7.528;2024-01-15T00:06:56;25.13;;;13.30;;
55009;SDS011;40903;51.638;7.528;2024-01-15T00:09:22;28.80;;;14.40;;
55009;SDS011;40903;51.638;7.528;2024-01-15T00:11:47;31.40;;;15.17;;
55009;SDS011;40903;51.638;7.528;2024-01-15T00:14:13;26.23;;;14.90;;
55009;SDS011;40903;51.638;7.528;2024-01-15T00:16:40;34.57;;;15.90;;
55009;SDS011;40903;51.638;7.528;2024-01-15T00:19:05;29.40;;;15.47;;
55009;SDS011;40903;51.638;7.528;2024-01-15T00:21:31;32.93;;;15.10;;
55009;SDS011;40903;51.638;7.528;2024-01-15T00:23:56;32.37;;;15.33;;
55009;SDS011;40903;51.638;7.528;2024-01-15T00:26:22;29.30;;;14.97;;
55009;SDS011;40903;51.638;7.528;2024-01-15T00:28:48;35.87;;;14.73;;
55009;SDS011;40903;51.638;7.528;2024-01-15T00:31:15;32.53;;;15.47;;
55009;SDS011;40903;51.638;7.528;2024-01-15T00:33:42;32.47;;;14.50;;
55009;SDS011;40903;51.638;7.528;2024-01-15T00:36:07;30.87;;;13.83;;
55009;SDS011;40903;51.638;7.528;2024-01-15T00:38:33;28.37;;;14.93;;
55009;SDS011;40903;51.638;7.528;2024-01-15T00:40:58;27.10;;;14.30;;
55009;SDS011;40903;51.638;7.528;2024-01-15T00:43:24;28.00;;;14.97;;
55009;SDS011;40903;51.638;7.528;2024-01-15T00:45:49;26.90;;;15.30;;
55009;SDS011;40903;51.638;7.528;2024-01-15T00:48:15;31.60;;;13.67;;
55009;SDS011;40903;51.638;7.528;2024-01-15T00:50:40;28.30;;;13.90;;
55009;SDS011;40903;51.638;7.528;2024-01-15T00:53:06;25.13;;;12.00;;
55009;SDS011;40903;51.638;7.528;2024-01-15T00:55:31;26.70;;;14.47;;
55009;SDS011;40903;51.638;7.528;2024-01-15T00:57:57;30.37;;;14.63;;
55009;SDS011;40903;51.638;7.528;2024-01-15T01:00:22;29.70;;;13.90;;
55009;SDS011;40903;51.638;7.528;2024-01-15T01:02:48;25.30;;;12.77;;
55009;SDS011;40903;51.638;7.528;2024-01-15T01:05:13;24.30;;;12.27;;
55009;SDS011;40903;51.638;7.528;2024-01-15T01:07:39;31.37;;;13.43;;
55009;SDS011;40903;51.638;7.528;2024-01-15T01:10:05;28.73;;;13.67;;
55009;SDS011;40903;51.638;7.528;2024-01-15T01:12:31;24.80;;;12.73;;
55009;SDS011;40903;51.638;7.528;2024-01-15T01:14:57;28.37;;;13.63;;
55009;SDS011;40903;51.638;7.528;2024-01-15T01:17:23;29.20;;;13.07;;
55009;SDS011;40903;51.638;7.528;2024-01-15T01:19:50;25.87;;;12.43;;
55009;SDS011;40903;51.638;7.528;2024-01-15T01:22:15;28.97;;;12.53;;
55009;SDS011;40903;51.638;7.528;2024-01-15T01:24:41;27.20;;;11.77;;
55009;SDS011;40903;51.638;7.528;2024-01-15T01:27:06;26.13;;;13.83;;
55009;SDS011;40903;51.638;7.528;2024-01-15T01:29:32;27.70;;;12.27;;
55009;SDS011;40903;51.638;7.528;2024-01-15T01:31:57;23.40;;;11.83;;
55009;SDS011;40903;51.638;7.528;2024-01-15T01:34:23;32.00;;;13.10;;
55009;SDS011;40903;51.638;7.528;2024-01-15T01:36:49;31.97;;;13.57;;
55009;SDS011;40903;51.638;7.528;2024-01-15T01:39:15;23.30;;;11.67;;
55009;SDS011;40903;51.638;7.528;2024-01-15T01:41:40;22.53;;;10.77;;
55009;SDS011;40903;51.638;7.528;2024-01-15T01:44:06;26.87;;;11.97;;
55009;SDS011;40903;51.638;7.528;2024-01-15T01:46:32;23.23;;;11.87;;
55009;SDS011;40903;51.638;7.528;2024-01-15T01:49:04;26.30;;;12.03;;
55009;SDS011;40903;51.638;7.528;2024-01-15T01:51:31;28.07;;;11.90;;
55009;SDS011;40903;51.638;7.528;2024-01-15T01:53:59;25.30;;;13.13;;
55009;SDS011;40903;51.638;7.528;2024-01-15T01:56:25;25.80;;;11.67;;
55009;SDS011;40903;51.638;7.528;2024-01-15T01:58:51;29.83;;;13.97;;
55009;SDS011;40903;51.638;7.528;2024-01-15T02:01:17;23.63;;;11.97;;
55009;SDS011;40903;51.638;7.528;2024-01-15T02:03:44;25.77;;;11.73;;
55009;SDS011;40903;51.638;7.528;2024-01-15T02:06:10;25.53;;;13.03;;
55009;SDS011;40903;51.638;7.528;2024-01-15T02:08:36;25.33;;;11.13;;
55009;SDS011;40903;51.638;7.528;2024-01-15T02:11:01;20.30;;;10.53;;
55009;SDS011;40903;51.638;7.528;2024-01-15T02:13:27;23.07;;;11.53;;
55009;SDS011;40903;51.638;7.528;2024-01-15T02:15:53;23.43;;;11.57;;
55009;SDS011;40903;51.638;7.528;2024-01-15T02:18:19;26.20;;;11.10;;
55009;SDS011;40903;51.638;7.528;2024-01-15T02:20:45;22.27;;;10.33;;
55009;SDS011;40903;51.638;7.528;2024-01-15T02:23:14;23.00;;;11.83;;
55009;SDS011;40903;51.638;7.528;2024-01-15T02:25:41;23.27;;;10.47;;
55009;SDS011;40903;51.638;7.528;2024-01-15T02:28:09;20.97;;;10.30;;
55009;SDS011;40903;51.638;7.528;2024-01-15T02:30:38;19.40;;;9.97;;
55009;SDS011;40903;51.638;7.528;2024-01-15T02:33:05;20.63;;;10.90;;
55009;SDS011;40903;51.638;7.528;2024-01-15T02:35:31;17.17;;;9.97;;
55009;SDS011;40903;51.638;7.528;2024-01-15T02:38:00;21.63;;;11.20;;
55009;SDS011;40903;51.638;7.528;2024-01-15T02:40:25;20.93;;;10.47;;
55009;SDS011;40903;51.638;7.528;2024-01-15T02:42:54;20.03;;;8.93;;
55009;SDS011;40903;51.638;7.528;2024-01-15T02:45:19;20.03;;;9.07;;
55009;SDS011;40903;51.638;7.528;2024-01-15T02:47:46;16.30;;;9.30;;
55009;SDS011;40903;51.638;7.528;2024-01-15T02:50:12;22.13;;;9.90;;
55009;SDS011;40903;51.638;7.528;2024-01-15T02:52:38;25.27;;;11.70;;
55009;SDS011;40903;51.638;7.528;2024-01-15T02:55:03;20.63;;;9.87;;
55009;SDS011;40903;51.638;7.528;2024-01-15T02:57:29;26.43;;;11.63;;
55009;SDS011;40903;51.638;7.528;2024-01-15T02:59:55;24.33;;;10.47;;
55009;SDS011;40903;51.638;7.528;2024-01-15T03:02:20;24.67;;;11.13;;
55009;SDS011;40903;51.638;7.528;2024-01-15T03:04:46;26.80;;;10.60;;
55009;SDS011;40903;51.638;7.528;2024-01-15T03:07:13;17.97;;;10.10;;
55009;SDS011;40903;51.638;7.528;2024-01-15T03:09:39;27.37;;;10.83;;
55009;SDS011;40903;51.638;7.528;2024-01-15T03:12:04;20.63;;;10.77;;
55009;SDS011;40903;51.638;7.528;2024-01-15T03:14:30;26.90;;;10.77;;
55009;SDS011;40903;51.638;7.528;2024-01-15T03:16:56;28.00;;;10.57;;
55009;SDS011;40903;51.638;7.528;2024-01-15T03:19:22;22.23;;;10.43;;
55009;SDS011;40903;51.638;7.528;2024-01-15T03:21:47;21.37;;;10.03;;
55009;SDS011;40903;51.638;7.528;2024-01-15T03:24:13;28.93;;;10.73;;
55009;SDS011;40903;51.638;7.528;2024-01-15T03:26:38;22.43;;;10.37;;
55009;SDS011;40903;51.638;7.528;2024-01-15T03:29:04;17.20;;;9.53;;
55009;SDS011;40903;51.638;7.528;2024-01-15T03:31:29;20.97;;;9.13;;
55009;SDS011;40903;51.638;7.528;2024-01-15T03:33:55;19.13;;;10.33;;
55009;SDS011;40903;51.638;7.528;2024-01-15T03:36:21;25.50;;;10.60;;
55009;SDS011;40903;51.638;7.528;2024-01-15T03:38:46;20.83;;;11.57;;
55009;SDS011;40903;51.638;7.528;2024-01-15T03:41:12;18.27;;;10.03;;
55009;SDS011;40903;51.638;7.528;2024-01-15T03:43:38;24.47;;;10.07;;
55009;SDS011;40903;51.638;7.528;2024-01-15T03:46:03;22.07;;;9.73;;
55009;SDS011;40903;51.638;7.528;2024-01-15T03:48:29;21.03;;;10.33;;
55009;SDS011;40903;51.638;7.528;2024-01-15T03:50:55;25.07;;;10.17;;
55009;SDS011;40903;51.638;7.528;2024-01-15T03:53:21;27.63;;;10.67;;
55009;SDS011;40903;51.638;7.528;2024-01-15T03:55:46;22.47;;;9.83;;
55009;SDS011;40903;51.638;7.528;2024-01-15T03:58:12;20.80;;;10.00;;
55009;SDS011;40903;51.638;7.528;2024-01-15T04:00:40;17.23;;;9.50;;
55009;SDS011;40903;51.638;7.528;2024-01-15T04:03:05;20.53;;;10.17;;
55009;SDS011;40903;51.638;7.528;2024-01-15T04:05:31;24.40;;;10.73;;
55009;SDS011;40903;51.638;7.528;2024-01-15T04:07:57;24.60;;;9.53;;
55009;SDS011;40903;51.638;7.528;2024-01-15T04:10:22;21.40;;;10.50;;
55009;SDS011;40903;51.638;7.528;2024-01-15T04:12:48;24.10;;;9.90;;
55009;SDS011;40903;51.638;7.528;2024-01-15T04:15:13;21.93;;;10.93;;
55009;SDS011;40903;51.638;7.528;2024-01-15T04:17:39;26.93;;;11.10;;
55009;SDS011;40903;51.638;7.528;2024-01-15T04:20:05;24.83;;;9.13;;
55009;SDS011;40903;51.638;7.528;2024-01-15T04:22:32;24.03;;;10.57;;
55009;SDS011;40903;51.638;7.528;2024-01-15T04:24:58;20.03;;;9.20;;
55009;SDS011;40903;51.638;7.528;2024-01-15T04:27:24;22.63;;;10.07;;
55009;SDS011;40903;51.638;7.528;2024-01-15T04:29:49;20.03;;;9.43;;
55009;SDS011;40903;51.638;7.528;2024-01-15T04:32:15;21.03;;;9.87;;
55009;SDS011;40903;51.638;7.528;2024-01-15T04:34:40;26.23;;;11.23;;
55009;SDS011;40903;51.638;7.528;2024-01-15T04:37:06;26.37;;;10.87;;
55009;SDS011;40903;51.638;7.528;2024-01-15T04:39:31;25.27;;;10.67;;
55009;SDS011;40903;51.638;7.528;2024-01-15T04:41:57;19.17;;;9.37;;
55009;SDS011;40903;51.638;7.528;2024-01-15T04:44:22;22.67;;;9.50;;
55009;SDS011;40903;51.638;7.528;2024-01-15T04:46:48;22.27;;;10.43;;
55009;SDS011;40903;51.638;7.528;2024-01-15T04:49:13;16.50;;;8.93;;
55009;SDS011;40903;51.638;7.528;2024-01-15T04:51:39;15.80;;;9.17;;
55009;SDS011;40903;51.638;7.528;2024-01-15T04:54:05;12.57;;;6.50;;
55009;SDS011;40903;51.638;7.528;2024-01-15T04:56:30;19.30;;;8.80;;
55009;SDS011;40903;51.638;7.528;2024-01-15T04:58:56;16.30;;;7.47;;
55009;SDS011;40903;51.638;7.528;2024-01-15T05:01:22;16.33;;;7.40;;
55009;SDS011;40903;51.638;7.528;2024-01-15T05:03:47;20.63;;;8.63;;
55009;SDS011;40903;51.638;7.528;2024-01-15T05:06:14;15.80;;;9.07;;
55009;SDS011;40903;51.638;7.528;2024-01-15T05:08:39;22.87;;;8.60;;
55009;SDS011;40903;51.638;7.528;2024-01-15T05:11:05;18.50;;;8.60;;
55009;SDS011;40903;51.638;7.528;2024-01-15T05:13:30;23.03;;;9.33;;
55009;SDS011;40903;51.638;7.528;2024-01-15T05:15:56;18.37;;;9.10;;
55009;SDS011;40903;51.638;7.528;2024-01-15T05:18:21;16.80;;;8.47;;
55009;SDS011;40903;51.638;7.528;2024-01-15T05:20:47;18.53;;;9.50;;
55009;SDS011;40903;51.638;7.528;2024-01-15T05:23:12;25.00;;;9.00;;
55009;SDS011;40903;51.638;7.528;2024-01-15T05:25:38;20.03;;;9.50;;
55009;SDS011;40903;51.638;7.528;2024-01-15T05:28:04;15.30;;;8.33;;
55009;SDS011;40903;51.638;7.528;2024-01-15T05:30:30;13.40;;;7.77;;
55009;SDS011;40903;51.638;7.528;2024-01-15T05:32:56;17.20;;;8.07;;
55009;SDS011;40903;51.638;7.528;2024-01-15T05:35:22;16.67;;;7.23;;
55009;SDS011;40903;51.638;7.528;2024-01-15T05:37:48;18.40;;;8.40;;
55009;SDS011;40903;51.638;7.528;2024-01-15T05:40:13;12.47;;;8.17;;
55009;SDS011;40903;51.638;7.528;2024-01-15T05:42:39;18.57;;;9.27;;
55009;SDS011;40903;51.638;7.528;2024-01-15T05:45:05;19.03;;;8.73;;
55009;SDS011;40903;51.638;7.528;2024-01-15T05:47:31;21.20;;;8.03;;
55009;SDS011;40903;51.638;7.528;2024-01-15T05:49:57;18.27;;;8.90;;
55009;SDS011;40903;51.638;7.528;2024-01-15T05:52:23;20.37;;;8.93;;
55009;SDS011;40903;51.638;7.528;2024-01-15T05:54:49;19.20;;;9.83;;
55009;SDS011;40903;51.638;7.528;2024-01-15T05:57:14;17.17;;;9.50;;
55009;SDS011;40903;51.638;7.528;2024-01-15T05:59:40;23.17;;;9.77;;
55009;SDS011;40903;51.638;7.528;2024-01-15T06:02:06;15.17;;;8.70;;
55009;SDS011;40903;51.638;7.528;2024-01-15T06:04:31;16.20;;;8.80;;
55009;SDS011;40903;51.638;7.528;2024-01-15T06:06:57;21.93;;;9.03;;
55009;SDS011;40903;51.638;7.528;2024-01-15T06:09:22;19.60;;;9.97;;
55009;SDS011;40903;51.638;7.528;2024-01-15T06:11:48;18.33;;;9.47;;
55009;SDS011;40903;51.638;7.528;2024-01-15T06:14:13;23.23;;;9.27;;
55009;SDS011;40903;51.638;7.528;2024-01-15T06:16:39;16.73;;;8.30;;
55009;SDS011;40903;51.638;7.528;2024-01-15T06:19:04;19.87;;;9.80;;
55009;SDS011;40903;51.638;7.528;2024-01-15T06:21:30;21.87;;;10.60;;
55009;SDS011;40903;51.638;7.528;2024-01-15T06:23:55;20.23;;;10.40;;
55009;SDS011;40903;51.638;7.528;2024-01-15T06:26:22;21.50;;;9.80;;
55009;SDS011;40903;51.638;7.528;2024-01-15T06:28:48;18.73;;;10.33;;
55009;SDS011;40903;51.638;7.528;2024-01-15T06:31:13;17.43;;;9.13;;
55009;SDS011;40903;51.638;7.528;2024-01-15T06:33:39;22.80;;;10.57;;
55009;SDS011;40903;51.638;7.528;2024-01-15T06:36:05;21.07;;;10.30;;
55009;SDS011;40903;51.638;7.528;2024-01-15T06:38:31;19.93;;;9.43;;
55009;SDS011;40903;51.638;7.528;2024-01-15T06:40:56;20.97;;;9.83;;
55009;SDS011;40903;51.638;7.528;2024-01-15T06:43:22;27.37;;;10.97;;
55009;SDS011;40903;51.638;7.528;2024-01-15T06:45:48;18.63;;;10.90;;
55009;SDS011;40903;51.638;7.528;2024-01-15T06:48:13;24.60;;;10.03;;
55009;SDS011;40903;51.638;7.528;2024-01-15T06:50:44;18.80;;;8.30;;
55009;SDS011;40903;51.638;7.528;2024-01-15T06:53:10;17.33;;;10.43;;
55009;SDS011;40903;51.638;7.528;2024-01-15T06:55:37;17.93;;;9.40;;
55009;SDS011;40903;51.638;7.528;2024-01-15T06:58:04;22.00;;;9.93;;
55009;SDS011;40903;51.638;7.528;2024-01-15T07:00:30;19.67;;;8.77;;
55009;SDS011;40903;51.638;7.528;2024-01-15T07:02:56;27.90;;;10.37;;
55009;SDS011;40903;51.638;7.528;2024-01-15T07:05:21;16.70;;;9.03;;
55009;SDS011;40903;51.638;7.528;2024-01-15T07:07:47;17.33;;;9.20;;
55009;SDS011;40903;51.638;7.528;2024-01-15T07:10:13;16.50;;;9.80;;
55009;SDS011;40903;51.638;7.528;2024-01-15T07:12:38;20.07;;;9.17;;
55009;SDS011;40903;51.638;7.528;2024-01-15T07:15:06;18.13;;;8.97;;
55009;SDS011;40903;51.638;7.528;2024-01-15T07:17:33;19.87;;;9.13;;
55009;SDS011;40903;51.638;7.528;2024-01-15T07:19:59;24.80;;;10.97;;
55009;SDS011;40903;51.638;7.528;2024-01-15T07:22:24;24.97;;;9.87;;
55009;SDS011;40903;51.638;7.528;2024-01-15T07:24:50;23.87;;;9.67;;
55009;SDS011;40903;51.638;7.528;2024-01-15T07:27:15;24.60;;;10.27;;
55009;SDS011;40903;51.638;7.528;2024-01-15T07:29:41;16.50;;;9.93;;
55009;SDS011;40903;51.638;7.528;2024-01-15T07:32:08;20.77;;;10.27;;
55009;SDS011;40903;51.638;7.528;2024-01-15T07:34:34;16.67;;;9.90;;
55009;SDS011;40903;51.638;7.528;2024-01-15T07:36:59;21.90;;;10.30;;
55009;SDS011;40903;51.638;7.528;2024-01-15T07:39:25;19.03;;;10.00;;
55009;SDS011;40903;51.638;7.528;2024-01-15T07:41:53;21.73;;;10.17;;
55009;SDS011;40903;51.638;7.528;2024-01-15T07:44:19;20.13;;;9.27;;
55009;SDS011;40903;51.638;7.528;2024-01-15T07:46:45;16.70;;;9.23;;
55009;SDS011;40903;51.638;7.528;2024-01-15T07:49:11;20.07;;;8.47;;
55009;SDS011;40903;51.638;7.528;2024-01-15T07:51:37;19.73;;;9.50;;
55009;SDS011;40903;51.638;7.528;2024-01-15T07:54:02;19.47;;;8.87;;
55009;SDS011;40903;51.638;7.528;2024-01-15T07:56:28;17.67;;;8.70;;
55009;SDS011;40903;51.638;7.528;2024-01-15T07:58:54;14.77;;;7.87;;
55009;SDS011;40903;51.638;7.528;2024-01-15T08:01:19;15.90;;;7.73;;
55009;SDS011;40903;51.638;7.528;2024-01-15T08:03:45;14.70;;;7.10;;
55009;SDS011;40903;51.638;7.528;2024-01-15T08:06:10;12.30;;;6.83;;
55009;SDS011;40903;51.638;7.528;2024-01-15T08:08:39;12.23;;;6.00;;
55009;SDS011;40903;51.638;7.528;2024-01-15T08:11:05;9.37;;;5.83;;
55009;SDS011;40903;51.638;7.528;2024-01-15T08:13:30;9.90;;;5.67;;
55009;SDS011;40903;51.638;7.528;2024-01-15T08:15:56;9.93;;;6.50;;
55009;SDS011;40903;51.638;7.528;2024-01-15T08:18:22;8.60;;;5.30;;
55009;SDS011;40903;51.638;7.528;2024-01-15T08:20:47;12.03;;;5.53;;
55009;SDS011;40903;51.638;7.528;2024-01-15T08:23:13;6.37;;;4.87;;
55009;SDS011;40903;51.638;7.528;2024-01-15T08:25:39;8.70;;;4.83;;
55009;SDS011;40903;51.638;7.528;2024-01-15T08:28:05;7.80;;;4.63;;
55009;SDS011;40903;51.638;7.528;2024-01-15T08:30:31;8.83;;;4.73;;
55009;SDS011;40903;51.638;7.528;2024-01-15T08:32:56;7.40;;;4.67;;
55009;SDS011;40903;51.638;7.528;2024-01-15T08:35:22;6.40;;;4.10;;
55009;SDS011;40903;51.638;7.528;2024-01-15T08:37:48;6.77;;;4.40;;
55009;SDS011;40903;51.638;7.528;2024-01-15T08:40:15;6.13;;;3.73;;
55009;SDS011;40903;51.638;7.528;2024-01-15T08:42:41;9.43;;;4.53;;
55009;SDS011;40903;51.638;7.528;2024-01-15T08:45:06;8.57;;;4.63;;
55009;SDS011;40903;51.638;7.528;2024-01-15T08:47:32;6.77;;;4.37;;
55009;SDS011;40903;51.638;7.528;2024-01-15T08:49:58;6.97;;;4.37;;
55009;SDS011;40903;51.638;7.528;2024-01-15T08:52:24;7.13;;;4.43;;
55009;SDS011;40903;51.638;7.528;2024-01-15T08:54:49;5.80;;;4.47;;
55009;SDS011;40903;51.638;7.528;2024-01-15T08:57:15;7.67;;;5.00;;
55009;SDS011;40903;51.638;7.528;2024-01-15T08:59:41;6.63;;;4.40;;
55009;SDS011;40903;51.638;7.528;2024-01-15T09:02:07;6.87;;;4.97;;
55009;SDS011;40903;51.638;7.528;2024-01-15T09:04:33;6.03;;;4.87;;
55009;SDS011;40903;51.638;7.528;2024-01-15T09:06:59;9.23;;;4.03;;
55009;SDS011;40903;51.638;7.528;2024-01-15T09:09:24;7.00;;;4.20;;
55009;SDS011;40903;51.638;7.528;2024-01-15T09:11:51;8.43;;;4.37;;
55009;SDS011;40903;51.638;7.528;2024-01-15T09:14:16;10.03;;;5.00;;
55009;SDS011;40903;51.638;7.528;2024-01-15T09:16:42;7.87;;;4.27;;
55009;SDS011;40903;51.638;7.528;2024-01-15T09:19:08;7.47;;;4.83;;
55009;SDS011;40903;51.638;7.528;2024-01-15T09:21:34;6.23;;;4.13;;
55009;SDS011;40903;51.638;7.528;2024-01-15T09:23:59;9.20;;;5.33;;
55009;SDS011;40903;51.638;7.528;2024-01-15T09:26:25;8.63;;;5.67;;
55009;SDS011;40903;51.638;7.528;2024-01-15T09:28:51;12.27;;;5.77;;
55009;SDS011;40903;51.638;7.528;2024-01-15T09:31:17;8.73;;;5.80;;
55009;SDS011;40903;51.638;7.528;2024-01-15T09:33:44;9.97;;;6.10;;
55009;SDS011;40903;51.638;7.528;2024-01-15T09:36:10;13.63;;;6.80;;
55009;SDS011;40903;51.638;7.528;2024-01-15T09:38:35;11.70;;;6.60;;
55009;SDS011;40903;51.638;7.528;2024-01-15T09:41:01;12.97;;;7.40;;
55009;SDS011;40903;51.638;7.528;2024-01-15T09:43:27;12.87;;;7.03;;
55009;SDS011;40903;51.638;7.528;2024-01-15T09:45:53;13.20;;;6.63;;
55009;SDS011;40903;51.638;7.528;2024-01-15T09:48:19;13.97;;;7.13;;
55009;SDS011;40903;51.638;7.528;2024-01-15T09:50:45;13.10;;;7.23;;
55009;SDS011;40903;51.638;7.528;2024-01-15T09:53:11;18.70;;;7.37;;
55009;SDS011;40903;51.638;7.528;2024-01-15T09:55:38;15.87;;;8.37;;
55009;SDS011;40903;51.638;7.528;2024-01-15T09:58:06;13.57;;;7.37;;
55009;SDS011;40903;51.638;7.528;2024-01-15T10:00:32;13.33;;;7.57;;
55009;SDS011;40903;51.638;7.528;2024-01-15T10:03:01;13.07;;;6.30;;
55009;SDS011;40903;51.638;7.528;2024-01-15T10:05:28;17.30;;;8.33;;
55009;SDS011;40903;51.638;7.528;2024-01-15T10:07:54;16.47;;;7.50;;
55009;SDS011;40903;51.638;7.528;2024-01-15T10:10:24;12.37;;;6.30;;
55009;SDS011;40903;51.638;7.528;2024-01-15T10:12:50;11.37;;;6.00;;
55009;SDS011;40903;51.638;7.528;2024-01-15T10:15:15;9.03;;;5.27;;
55009;SDS011;40903;51.638;7.528;2024-01-15T10:17:42;10.07;;;5.73;;
55009;SDS011;40903;51.638;7.528;2024-01-15T10:20:11;7.50;;;4.83;;
55009;SDS011;40903;51.638;7.528;2024-01-15T10:22:43;9.40;;;5.10;;
55009;SDS011;40903;51.638;7.528;2024-01-15T10:25:13;9.07;;;4.43;;
55009;SDS011;40903;51.638;7.528;2024-01-15T10:27:42;9.17;;;3.93;;
55009;SDS011;40903;51.638;7.528;2024-01-15T10:30:09;6.57;;;4.27;;
55009;SDS011;40903;51.638;7.528;2024-01-15T10:32:36;9.63;;;3.70;;
55009;SDS011;40903;51.638;7.528;2024-01-15T10:35:01;9.63;;;4.47;;
55009;SDS011;40903;51.638;7.528;2024-01-15T10:37:27;6.90;;;3.77;;
55009;SDS011;40903;51.638;7.528;2024-01-15T10:39:52;4.50;;;3.67;;
55009;SDS011;40903;51.638;7.528;2024-01-15T10:42:18;6.10;;;4.07;;
55009;SDS011;40903;51.638;7.528;2024-01-15T10:44:44;5.30;;;3.63;;
55009;SDS011;40903;51.638;7.528;2024-01-15T10:47:12;5.23;;;3.47;;
55009;SDS011;40903;51.638;7.528;2024-01-15T10:49:38;4.93;;;3.87;;
55009;SDS011;40903;51.638;7.528;2024-01-15T10:52:04;5.40;;;3.77;;
55009;SDS011;40903;51.638;7.528;2024-01-15T10:54:31;5.07;;;3.53;;
55009;SDS011;40903;51.638;7.528;2024-01-15T10:56:57;5.03;;;3.70;;
55009;SDS011;40903;51.638;7.528;2024-01-15T10:59:22;5.23;;;3.30;;
55009;SDS011;40903;51.638;7.528;2024-01-15T11:01:48;5.03;;;3.87;;
55009;SDS011;40903;51.638;7.528;2024-01-15T11:04:14;5.87;;;3.70;;
55009;SDS011;40903;51.638;7.528;2024-01-15T11:06:44;7.47;;;4.00;;
55009;SDS011;40903;51.638;7.528;2024-01-15T11:09:14;5.27;;;4.00;;
55009;SDS011;40903;51.638;7.528;2024-01-15T11:11:41;9.67;;;4.30;;
55009;SDS011;40903;51.638;7.528;2024-01-15T11:14:09;7.87;;;4.03;;
55009;SDS011;40903;51.638;7.528;2024-01-15T11:16:54;7.60;;;4.67;;
55009;SDS011;40903;51.638;7.528;2024-01-15T11:19:24;9.20;;;5.17;;
55009;SDS011;40903;51.638;7.528;2024-01-15T11:21:50;10.00;;;4.10;;
55009;SDS011;40903;51.638;7.528;2024-01-15T11:24:34;7.43;;;4.10;;
55009;SDS011;40903;51.638;7.528;2024-01-15T11:27:01;8.83;;;4.10;;
55009;SDS011;40903;51.638;7.528;2024-01-15T11:31:57;6.60;;;3.63;;
55009;SDS011;40903;51.638;7.528;2024-01-15T11:37:23;5.97;;;3.63;;
55009;SDS011;40903;51.638;7.528;2024-01-15T11:39:53;6.73;;;3.40;;
55009;SDS011;40903;51.638;7.528;2024-01-15T11:42:22;4.60;;;3.33;;
55009;SDS011;40903;51.638;7.528;2024-01-15T11:44:49;7.67;;;3.17;;
55009;SDS011;40903;51.638;7.528;2024-01-15T11:47:15;6.47;;;2.80;;
55009;SDS011;40903;51.638;7.528;2024-01-15T11:52:18;3.87;;;2.20;;
55009;SDS011;40903;51.638;7.528;2024-01-15T11:55:34;7.30;;;3.10;;
55009;SDS011;40903;51.638;7.528;2024-01-15T12:00:08;7.30;;;2.57;;
55009;SDS011;40903;51.638;7.528;2024-01-15T12:02:35;4.27;;;2.37;;
55009;SDS011;40903;51.638;7.528;2024-01-15T12:05:01;2.63;;;1.97;;
55009;SDS011;40903;51.638;7.528;2024-01-15T12:07:28;2.97;;;2.10;;
55009;SDS011;40903;51.638;7.528;2024-01-15T12:09:53;4.90;;;2.30;;
55009;SDS011;40903;51.638;7.528;2024-01-15T12:12:21;3.00;;;2.13;;
55009;SDS011;40903;51.638;7.528;2024-01-15T12:14:53;3.80;;;2.47;;
55009;SDS011;40903;51.638;7.528;2024-01-15T12:17:19;3.70;;;2.43;;
55009;SDS011;40903;51.638;7.528;2024-01-15T12:19:44;3.20;;;2.40;;
55009;SDS011;40903;51.638;7.528;2024-01-15T12:22:10;2.93;;;2.30;;
55009;SDS011;40903;51.638;7.528;2024-01-15T12:24:35;5.13;;;3.07;;
55009;SDS011;40903;51.638;7.528;2024-01-15T12:27:01;4.57;;;2.60;;
55009;SDS011;40903;51.638;7.528;2024-01-15T12:29:27;9.13;;;2.60;;
55009;SDS011;40903;51.638;7.528;2024-01-15T12:31:53;4.97;;;2.10;;
55009;SDS011;40903;51.638;7.528;2024-01-15T12:34:18;7.63;;;2.83;;
55009;SDS011;40903;51.638;7.528;2024-01-15T12:36:47;3.87;;;2.43;;
55009;SDS011;40903;51.638;7.528;2024-01-15T12:39:13;4.17;;;2.00;;
55009;SDS011;40903;51.638;7.528;2024-01-15T12:41:38;4.37;;;2.23;;
55009;SDS011;40903;51.638;7.528;2024-01-15T12:44:04;6.13;;;2.40;;
55009;SDS011;40903;51.638;7.528;2024-01-15T12:46:30;7.93;;;2.43;;
55009;SDS011;40903;51.638;7.528;2024-01-15T12:48:56;5.97;;;3.40;;
55009;SDS011;40903;51.638;7.528;2024-01-15T12:51:25;4.43;;;2.90;;
55009;SDS011;40903;51.638;7.528;2024-01-15T12:53:51;4.63;;;2.73;;
55009;SDS011;40903;51.638;7.528;2024-01-15T12:56:18;7.47;;;3.20;;
55009;SDS011;40903;51.638;7.528;2024-01-15T12:58:43;6.97;;;3.57;;
55009;SDS011;40903;51.638;7.528;2024-01-15T13:01:09;7.90;;;3.33;;
55009;SDS011;40903;51.638;7.528;2024-01-15T13:03:35;6.33;;;3.50;;
55009;SDS011;40903;51.638;7.528;2024-01-15T13:06:01;5.83;;;3.93;;
55009;SDS011;40903;51.638;7.528;2024-01-15T13:08:26;4.97;;;3.10;;
55009;SDS011;40903;51.638;7.528;2024-01-15T13:10:54;5.97;;;3.73;;
55009;SDS011;40903;51.638;7.528;2024-01-15T13:13:22;8.33;;;3.67;;
55009;SDS011;40903;51.638;7.528;2024-01-15T13:15:47;5.50;;;3.70;;
55009;SDS011;40903;51.638;7.528;2024-01-15T13:18:13;7.23;;;2.97;;
55009;SDS011;40903;51.638;7.528;2024-01-15T13:20:39;4.03;;;2.93;;
55009;SDS011;40903;51.638;7.528;2024-01-15T13:23:04;3.97;;;2.00;;
55009;SDS011;40903;51.638;7.528;2024-01-15T13:25:30;5.00;;;2.30;;
55009;SDS011;40903;51.638;7.528;2024-01-15T13:27:55;2.83;;;2.07;;
55009;SDS011;40903;51.638;7.528;2024-01-15T13:30:21;5.53;;;2.63;;
55009;SDS011;40903;51.638;7.528;2024-01-15T13:32:46;3.57;;;1.57;;
55009;SDS011;40903;51.638;7.528;2024-01-15T13:35:12;3.50;;;1.60;;
55009;SDS011;40903;51.638;7.528;2024-01-15T13:37:38;3.00;;;1.97;;
55009;SDS011;40903;51.638;7.528;2024-01-15T13:40:06;4.00;;;1.20;;
55009;SDS011;40903;51.638;7.528;2024-01-15T13:42:34;3.20;;;1.40;;
55009;SDS011;40903;51.638;7.528;2024-01-15T13:45:04;3.30;;;1.43;;
55009;SDS011;40903;51.638;7.528;2024-01-15T13:47:31;2.33;;;1.67;;
55009;SDS011;40903;51.638;7.528;2024-01-15T13:49:57;1.57;;;1.17;;
55009;SDS011;40903;51.638;7.528;2024-01-15T13:52:23;1.87;;;1.33;;
55009;SDS011;40903;51.638;7.528;2024-01-15T13:54:48;2.10;;;1.30;;
55009;SDS011;40903;51.638;7.528;2024-01-15T13:57:14;3.60;;;2.00;;
55009;SDS011;40903;51.638;7.528;2024-01-15T13:59:40;5.43;;;1.53;;
55009;SDS011;40903;51.638;7.528;2024-01-15T14:02:06;3.73;;;1.30;;
55009;SDS011;40903;51.638;7.528;2024-01-15T14:04:31;2.97;;;1.67;;
55009;SDS011;40903;51.638;7.528;2024-01-15T14:06:57;2.50;;;1.43;;
55009;SDS011;40903;51.638;7.528;2024-01-15T14:09:22;1.73;;;1.40;;
55009;SDS011;40903;51.638;7.528;2024-01-15T14:11:48;3.23;;;1.60;;
55009;SDS011;40903;51.638;7.528;2024-01-15T14:14:14;3.47;;;1.27;;
55009;SDS011;40903;51.638;7.528;2024-01-15T14:16:39;2.40;;;1.57;;
55009;SDS011;40903;51.638;7.528;2024-01-15T14:19:05;3.10;;;1.30;;
55009;SDS011;40903;51.638;7.528;2024-01-15T14:21:34;5.60;;;1.90;;
55009;SDS011;40903;51.638;7.528;2024-01-15T14:24:00;5.80;;;2.27;;
55009;SDS011;40903;51.638;7.528;2024-01-15T14:26:26;4.77;;;2.03;;
55009;SDS011;40903;51.638;7.528;2024-01-15T14:28:51;4.67;;;1.60;;
55009;SDS011;40903;51.638;7.528;2024-01-15T14:31:17;2.17;;;1.50;;
55009;SDS011;40903;51.638;7.528;2024-01-15T14:33:42;1.60;;;1.10;;
55009;SDS011;40903;51.638;7.528;2024-01-15T14:36:08;2.00;;;1.20;;
55009;SDS011;40903;51.638;7.528;2024-01-15T14:38:33;2.10;;;1.00;;
55009;SDS011;40903;51.638;7.528;2024-01-15T14:41:00;2.37;;;1.37;;